Time;durP1;ratioP1;P1;durP2;ratioP2;P2;SDS_P1;SDS_P2;PMS_P1;PMS_P2;Temp;Humidity;BMP_temperature;BMP_pressure;BME280_temperature;BME280_humidity;BME280_pressure;Samples;Min_cycle;Max_cycle;Signal;HPM_P1;HPM_P2
2024/01/22 00:01:26;;;;;;;;;;;6.20;99.90;;;;;;5066170;28;19998;-75
2024/01/22 00:03:51;;;;;;;;;;;6.20;99.90;;;;;;5101090;27;19927;-76
2024/01/22 00:06:17;;;;;;;;;;;6.30;99.90;;;;;;5086692;28;20579;-75
2024/01/22 00:08:43;;;;;;;;;;;6.20;99.90;;;;;;5085260;28;20894;-75
2024/01/22 00:11:10;;;;;;;;;;;6.20;99.90;;;;;;5086064;28;20006;-75
2024/01/22 00:13:36;;;;;;;;;;;6.30;99.90;;;;;;5103671;28;19989;-75
2024/01/22 00:16:02;;;;;;;;;;;6.30;99.90;;;;;;5084749;28;20383;-76
2024/01/22 00:18:28;;;;;;;;;;;6.30;99.90;;;;;;5085590;27;20022;-76
2024/01/22 00:20:53;;;;;;;;;;;6.20;99.90;;;;;;5068873;28;20426;-76
2024/01/22 00:23:19;;;;;;;;;;;6.40;99.90;;;;;;5087093;28;19931;-75
2024/01/22 00:25:45;;;;;;;;;;;6.30;99.90;;;;;;5084124;28;19995;-75
2024/01/22 00:28:10;;;;;;;;;;;6.30;99.90;;;;;;5102330;27;19955;-75
2024/01/22 00:30:36;;;;;;;;;;;6.40;99.90;;;;;;5082090;27;19935;-77
2024/01/22 00:33:07;;;;;;;;;;;6.40;99.90;;;;;;5084764;28;19931;-76
2024/01/22 00:35:33;;;;;;;;;;;6.40;99.90;;;;;;5083441;28;19932;-76
2024/01/22 00:37:59;;;;;;;;;;;6.30;99.90;;;;;;5068413;27;19950;-76
2024/01/22 00:40:24;;;;;;;;;;;6.40;99.90;;;;;;5055904;28;20001;-76
2024/01/22 00:42:50;;;;;;;;;;;6.50;99.90;;;;;;5085655;28;19927;-76
2024/01/22 00:45:16;;;;;;;;;;;6.40;99.90;;;;;;5069052;27;20401;-76
2024/01/22 00:47:41;;;;;;;;;;;6.30;99.90;;;;;;5101073;28;19938;-76
2024/01/22 00:50:07;;;;;;;;;;;6.30;99.90;;;;;;5085157;28;20332;-76
2024/01/22 00:52:33;;;;;;;;;;;6.30;99.90;;;;;;5066638;28;19928;-76
2024/01/22 00:54:58;;;;;;;;;;;6.40;99.90;;;;;;5065493;28;19928;-76
2024/01/22 00:57:25;;;;;;;;;;;6.40;99.90;;;;;;5083894;27;20507;-76
2024/01/22 00:59:50;;;;;;;;;;;6.40;99.90;;;;;;5064119;28;19932;-77
2024/01/22 01:02:16;;;;;;;;;;;6.40;99.90;;;;;;5082672;28;19967;-78
2024/01/22 01:04:42;;;;;;;;;;;6.50;99.90;;;;;;5085460;28;19970;-76
2024/01/22 01:07:08;;;;;;;;;;;6.50;99.90;;;;;;5084037;28;19928;-76
2024/01/22 01:09:33;;;;;;;;;;;6.40;99.90;;;;;;5086957;28;20040;-77
2024/01/22 01:11:59;;;;;;;;;;;6.40;99.90;;;;;;5085521;28;19927;-76
2024/01/22 01:14:25;;;;;;;;;;;6.50;99.90;;;;;;5068847;27;19928;-76
2024/01/22 01:16:51;;;;;;;;;;;6.50;99.90;;;;;;5085899;28;19938;-76
2024/01/22 01:19:16;;;;;;;;;;;6.50;99.90;;;;;;5084483;28;20228;-76
2024/01/22 01:21:45;;;;;;;;;;;6.60;99.90;;;;;;5101642;27;19953;-76
2024/01/22 01:24:10;;;;;;;;;;;6.70;99.90;;;;;;5068826;28;19923;-76
2024/01/22 01:26:40;;;;;;;;;;;6.80;99.90;;;;;;5084643;28;20010;-76
2024/01/22 01:29:06;;;;;;;;;;;6.60;99.90;;;;;;5081774;28;19939;-76
2024/01/22 01:31:32;;;;;;;;;;;6.70;99.90;;;;;;5083672;28;19924;-75
2024/01/22 01:34:03;;;;;;;;;;;6.80;99.90;;;;;;5084321;28;20354;-76
2024/01/22 01:36:29;;;;;;;;;;;6.80;99.90;;;;;;5068305;28;19931;-77
2024/01/22 01:38:58;;;;;;;;;;;6.80;99.90;;;;;;5100881;27;19919;-77
2024/01/22 01:41:23;;;;;;;;;;;6.90;99.90;;;;;;5083941;28;19935;-76
2024/01/22 01:43:49;;;;;;;;;;;6.70;99.90;;;;;;5085623;28;20816;-75
2024/01/22 01:46:15;;;;;;;;;;;6.90;99.90;;;;;;5086550;28;19941;-77
2024/01/22 01:48:41;;;;;;;;;;;7.00;99.90;;;;;;5083746;28;19943;-76
2024/01/22 01:51:06;;;;;;;;;;;6.90;99.90;;;;;;5067439;28;20043;-77
2024/01/22 01:53:33;;;;;;;;;;;7.00;99.90;;;;;;5065586;28;20002;-76
2024/01/22 01:55:59;;;;;;;;;;;7.20;99.90;;;;;;5083811;28;19928;-76
2024/01/22 01:58:25;;;;;;;;;;;7.20;99.90;;;;;;5067139;28;20129;-77
2024/01/22 02:00:54;;;;;;;;;;;6.80;99.90;;;;;;5064261;28;20290;-76
2024/01/22 02:03:19;;;;;;;;;;;7.20;99.90;;;;;;5067261;28;19927;-76
2024/01/22 02:05:46;;;;;;;;;;;7.20;99.90;;;;;;5085599;28;19938;-76
2024/01/22 02:08:11;;;;;;;;;;;7.30;99.90;;;;;;5084214;28;19928;-76
2024/01/22 02:10:37;;;;;;;;;;;7.30;99.90;;;;;;5082184;28;19931;-76
2024/01/22 02:13:05;;;;;;;;;;;7.50;99.90;;;;;;5083972;28;19920;-76
2024/01/22 02:15:32;;;;;;;;;;;7.30;99.90;;;;;;5065102;28;21673;-76
2024/01/22 02:18:02;;;;;;;;;;;7.40;99.90;;;;;;5081812;28;20011;-77
2024/01/22 02:20:28;;;;;;;;;;;7.50;99.90;;;;;;5084379;28;19945;-77
2024/01/22 02:22:53;;;;;;;;;;;7.50;99.90;;;;;;5079570;28;19935;-77
2024/01/22 02:25:19;;;;;;;;;;;7.40;99.90;;;;;;5065015;28;19931;-77
2024/01/22 02:27:45;;;;;;;;;;;7.50;99.90;;;;;;5098439;28;19958;-77
2024/01/22 02:30:11;;;;;;;;;;;7.60;99.90;;;;;;5099449;27;19935;-77
2024/01/22 02:32:36;;;;;;;;;;;7.50;99.90;;;;;;5080010;28;19928;-77
2024/01/22 02:35:02;;;;;;;;;;;7.60;99.90;;;;;;5081920;28;19942;-77
2024/01/22 02:37:28;;;;;;;;;;;7.70;99.90;;;;;;5093664;28;20439;-77
2024/01/22 02:39:53;;;;;;;;;;;7.70;99.90;;;;;;5081484;28;19927;-77
2024/01/22 02:42:19;;;;;;;;;;;7.70;99.90;;;;;;5080341;28;20079;-77
2024/01/22 02:44:51;;;;;;;;;;;7.60;99.90;;;;;;5100206;28;19936;-76
2024/01/22 02:47:17;;;;;;;;;;;7.80;99.90;;;;;;5081304;28;19927;-76
2024/01/22 02:49:42;;;;;;;;;;;7.80;99.90;;;;;;5080710;28;19930;-77
2024/01/22 02:52:08;;;;;;;;;;;7.70;99.90;;;;;;5078745;28;20466;-77
2024/01/22 02:54:34;;;;;;;;;;;7.90;99.90;;;;;;5080346;28;19974;-77
2024/01/22 02:56:59;;;;;;;;;;;7.70;99.90;;;;;;5082945;28;20013;-77
2024/01/22 02:59:25;;;;;;;;;;;7.80;99.90;;;;;;5063782;28;19927;-77
2024/01/22 03:01:50;;;;;;;;;;;7.80;99.90;;;;;;5062930;28;19935;-76
2024/01/22 03:04:19;;;;;;;;;;;7.90;99.90;;;;;;5094477;28;19984;-77
2024/01/22 03:06:45;;;;;;;;;;;7.90;99.90;;;;;;5081317;28;20908;-76
2024/01/22 03:09:11;;;;;;;;;;;7.90;99.90;;;;;;5082869;28;19981;-77
2024/01/22 03:11:36;;;;;;;;;;;7.90;99.90;;;;;;5083161;28;19923;-76
2024/01/22 03:14:03;;;;;;;;;;;7.90;99.90;;;;;;5064798;28;20306;-77
2024/01/22 03:16:29;;;;;;;;;;;7.90;99.90;;;;;;5098762;28;20015;-77
2024/01/22 03:18:54;;;;;;;;;;;8.00;99.90;;;;;;5061691;28;19928;-78
2024/01/22 03:21:20;;;;;;;;;;;7.90;99.90;;;;;;5098257;28;19932;-77
2024/01/22 03:23:45;;;;;;;;;;;8.00;99.90;;;;;;5080094;28;20393;-77
2024/01/22 03:26:18;;;;;;;;;;;8.10;99.90;;;;;;5082665;28;20389;-78
2024/01/22 03:28:44;;;;;;;;;;;8.20;99.90;;;;;;5082068;28;19924;-77
2024/01/22 03:31:19;;;;;;;;;;;8.30;99.90;;;;;;5085408;28;19928;-77
2024/01/22 03:33:44;;;;;;;;;;;8.40;99.90;;;;;;5101339;28;19931;-77
2024/01/22 03:36:10;;;;;;;;;;;8.40;99.90;;;;;;5081051;28;19987;-78
2024/01/22 03:38:38;;;;;;;;;;;8.60;99.90;;;;;;5064223;28;21289;-77
2024/01/22 03:41:04;;;;;;;;;;;8.50;99.90;;;;;;5062566;28;19928;-77
2024/01/22 03:43:29;;;;;;;;;;;8.50;99.90;;;;;;5084153;28;19924;-77
2024/01/22 03:45:55;;;;;;;;;;;8.40;99.90;;;;;;5063404;28;19930;-77
2024/01/22 03:48:20;;;;;;;;;;;8.60;99.90;;;;;;5081695;28;20010;-77
2024/01/22 03:50:46;;;;;;;;;;;8.50;99.90;;;;;;5064578;28;19931;-77
2024/01/22 03:53:12;;;;;;;;;;;8.70;99.90;;;;;;5068501;28;20427;-77
2024/01/22 03:55:37;;;;;;;;;;;8.90;99.90;;;;;;5066582;28;19924;-77
2024/01/22 03:58:03;;;;;;;;;;;8.90;99.90;;;;;;5064065;28;19954;-75
2024/01/22 04:00:29;;;;;;;;;;;8.90;99.90;;;;;;5058079;28;20137;-77
2024/01/22 04:02:54;;;;;;;;;;;8.90;99.90;;;;;;5064255;28;20317;-76
2024/01/22 04:05:21;;;;;;;;;;;9.00;99.90;;;;;;5085181;28;19928;-77
2024/01/22 04:07:47;;;;;;;;;;;9.00;99.90;;;;;;5087115;28;19963;-77
2024/01/22 04:10:13;;;;;;;;;;;9.00;99.90;;;;;;5086195;28;21287;-76
2024/01/22 04:12:39;;;;;;;;;;;8.90;99.90;;;;;;5085086;28;19932;-76
2024/01/22 04:15:05;;;;;;;;;;;8.90;99.90;;;;;;5085819;28;20026;-77
2024/01/22 04:17:30;;;;;;;;;;;9.00;99.90;;;;;;5084406;28;20104;-77
2024/01/22 04:19:56;;;;;;;;;;;9.10;99.90;;;;;;5084598;28;20376;-77
2024/01/22 04:22:21;;;;;;;;;;;9.10;99.90;;;;;;5085946;28;19962;-76
2024/01/22 04:24:47;;;;;;;;;;;9.00;99.90;;;;;;5084279;28;20464;-77
2024/01/22 04:27:13;;;;;;;;;;;9.00;99.90;;;;;;5084538;27;19932;-76
2024/01/22 04:29:38;;;;;;;;;;;9.00;99.90;;;;;;5085337;28;19928;-77
2024/01/22 04:32:04;;;;;;;;;;;9.20;99.90;;;;;;5069327;28;19931;-76
2024/01/22 04:34:30;;;;;;;;;;;9.20;99.90;;;;;;5086254;27;19931;-77
2024/01/22 04:36:56;;;;;;;;;;;9.10;99.90;;;;;;5086390;28;19937;-76
2024/01/22 04:39:23;;;;;;;;;;;9.10;99.90;;;;;;5065224;28;20469;-77
2024/01/22 04:41:49;;;;;;;;;;;9.30;99.90;;;;;;5085306;27;20336;-76
2024/01/22 04:44:15;;;;;;;;;;;9.20;99.90;;;;;;5066415;27;19928;-76
2024/01/22 04:46:41;;;;;;;;;;;9.20;99.90;;;;;;5064396;28;19928;-77
2024/01/22 04:49:08;;;;;;;;;;;9.40;99.90;;;;;;5067113;28;19927;-76
2024/01/22 04:51:34;;;;;;;;;;;9.40;99.90;;;;;;5086838;28;20036;-76
2024/01/22 04:54:00;;;;;;;;;;;9.20;99.90;;;;;;5087681;28;20456;-77
2024/01/22 04:56:25;;;;;;;;;;;9.30;99.90;;;;;;5086012;27;19923;-75
2024/01/22 04:58:51;;;;;;;;;;;9.20;99.90;;;;;;5066480;28;20352;-75
2024/01/22 05:01:17;;;;;;;;;;;9.30;99.90;;;;;;5051372;28;19923;-76
2024/01/22 05:03:42;;;;;;;;;;;9.20;99.90;;;;;;5083560;27;19940;-76
2024/01/22 05:06:08;;;;;;;;;;;9.20;99.90;;;;;;5083519;28;20474;-76
2024/01/22 05:08:33;;;;;;;;;;;9.20;99.90;;;;;;5051387;28;19970;-76
2024/01/22 05:10:59;;;;;;;;;;;9.20;99.90;;;;;;5067623;28;19923;-76
2024/01/22 05:13:25;;;;;;;;;;;9.10;99.90;;;;;;5083184;28;20728;-75
2024/01/22 05:15:50;;;;;;;;;;;9.20;99.90;;;;;;5100324;28;19934;-76
2024/01/22 05:18:16;;;;;;;;;;;9.10;99.90;;;;;;5083459;28;19928;-76
2024/01/22 05:20:41;;;;;;;;;;;9.00;99.90;;;;;;5082792;28;19968;-77
2024/01/22 05:23:10;;;;;;;;;;;9.00;99.90;;;;;;5102566;28;19936;-75
2024/01/22 05:25:36;;;;;;;;;;;9.00;99.90;;;;;;5080559;28;19927;-77
2024/01/22 05:28:02;;;;;;;;;;;9.00;99.90;;;;;;5102444;27;19923;-76
2024/01/22 05:30:27;;;;;;;;;;;9.00;99.90;;;;;;5082840;28;19966;-76
2024/01/22 05:32:53;;;;;;;;;;;9.20;99.90;;;;;;5066637;27;20061;-76
2024/01/22 05:35:18;;;;;;;;;;;9.00;99.90;;;;;;5083149;28;20371;-75
2024/01/22 05:37:44;;;;;;;;;;;9.00;99.90;;;;;;5099672;28;19924;-76
2024/01/22 05:40:10;;;;;;;;;;;9.10;99.90;;;;;;5081392;28;21520;-76
2024/01/22 05:42:37;;;;;;;;;;;9.10;99.90;;;;;;5097527;27;19932;-76
2024/01/22 05:45:03;;;;;;;;;;;9.00;99.90;;;;;;5081068;28;19924;-76
2024/01/22 05:47:29;;;;;;;;;;;8.90;99.90;;;;;;5081797;27;19931;-76
2024/01/22 05:49:54;;;;;;;;;;;9.00;99.90;;;;;;5082915;27;20016;-76
2024/01/22 05:52:20;;;;;;;;;;;8.90;99.90;;;;;;5063544;28;19967;-74
2024/01/22 05:54:46;;;;;;;;;;;8.90;99.90;;;;;;5097833;28;20280;-75
2024/01/22 05:57:19;;;;;;;;;;;9.00;99.90;;;;;;5080641;28;19978;-75
2024/01/22 05:59:44;;;;;;;;;;;9.00;99.90;;;;;;5062700;28;19934;-76
2024/01/22 06:02:13;;;;;;;;;;;8.90;99.90;;;;;;5079997;28;19924;-76
2024/01/22 06:04:39;;;;;;;;;;;8.90;99.90;;;;;;5078745;28;19924;-75
2024/01/22 06:07:04;;;;;;;;;;;8.90;99.90;;;;;;5081867;28;19954;-76
2024/01/22 06:09:30;;;;;;;;;;;8.80;99.90;;;;;;5081844;28;20085;-76
2024/01/22 06:11:55;;;;;;;;;;;9.00;99.90;;;;;;5081670;28;20040;-76
2024/01/22 06:14:21;;;;;;;;;;;8.90;99.90;;;;;;5077788;28;20519;-76
2024/01/22 06:16:47;;;;;;;;;;;8.80;99.90;;;;;;5064721;28;19935;-77
2024/01/22 06:19:12;;;;;;;;;;;8.80;99.90;;;;;;5079326;28;19927;-77
2024/01/22 06:21:38;;;;;;;;;;;8.70;99.90;;;;;;5099511;28;19931;-76
2024/01/22 06:24:04;;;;;;;;;;;8.60;99.90;;;;;;5077342;28;19924;-80
2024/01/22 06:26:29;;;;;;;;;;;8.70;99.90;;;;;;5062040;28;19935;-77
2024/01/22 06:28:57;;;;;;;;;;;8.80;99.90;;;;;;5091800;28;19931;-76
2024/01/22 06:31:22;;;;;;;;;;;8.80;99.90;;;;;;5077094;28;19928;-76
2024/01/22 06:34:07;;;;;;;;;;;8.80;99.90;;;;;;5078609;28;19931;-75
2024/01/22 06:36:46;;;;;;;;;;;7.80;99.90;;;;;;5057095;28;20008;-76
2024/01/22 06:39:13;;;;;;;;;;;8.80;99.90;;;;;;5097035;28;20143;-74
2024/01/22 06:41:39;;;;;;;;;;;8.60;99.90;;;;;;5081618;28;20446;-82
2024/01/22 06:44:05;;;;;;;;;;;8.60;99.90;;;;;;5063617;28;19931;-79
2024/01/22 06:46:33;;;;;;;;;;;9.00;99.90;;;;;;5080089;28;20023;-83
2024/01/22 06:49:05;;;;;;;;;;;8.80;99.90;;;;;;5081898;28;20458;-81
2024/01/22 06:51:47;;;;;;;;;;;8.60;99.90;;;;;;5085328;28;20708;-82
2024/01/22 06:54:32;;;;;;;;;;;8.80;99.90;;;;;;5081358;28;19985;-79
2024/01/22 06:56:58;;;;;;;;;;;8.80;99.90;;;;;;5080152;28;19928;-79
2024/01/22 06:59:34;;;;;;;;;;;8.70;99.90;;;;;;5098954;28;19932;-82
2024/01/22 07:02:09;;;;;;;;;;;8.70;99.90;;;;;;5099531;28;19982;-77
2024/01/22 07:04:42;;;;;;;;;;;8.80;99.90;;;;;;5099049;28;19963;-78
2024/01/22 07:07:43;;;;;;;;;;;8.70;99.90;;;;;;5099650;28;19931;-81
2024/01/22 07:10:17;;;;;;;;;;;8.70;99.90;;;;;;5098655;28;20050;-80
2024/01/22 07:12:43;;;;;;;;;;;8.70;99.90;;;;;;5064660;28;20583;-79
2024/01/22 07:15:12;;;;;;;;;;;8.70;99.90;;;;;;5066178;28;19938;-82
2024/01/22 07:17:41;;;;;;;;;;;8.60;99.90;;;;;;5064428;28;19955;-82
2024/01/22 07:20:18;;;;;;;;;;;8.60;99.90;;;;;;5078837;28;19945;-82
2024/01/22 07:22:59;;;;;;;;;;;9.60;99.90;;;;;;5080432;28;19935;-81
2024/01/22 07:25:25;;;;;;;;;;;8.60;99.90;;;;;;5096914;28;19971;-79
2024/01/22 07:27:50;;;;;;;;;;;8.60;99.90;;;;;;5099631;28;19970;-80
2024/01/22 07:30:16;;;;;;;;;;;8.60;99.90;;;;;;5080644;28;19935;-80
2024/01/22 07:32:43;;;;;;;;;;;8.40;99.90;;;;;;5062455;28;19927;-79
2024/01/22 07:35:13;;;;;;;;;;;8.50;99.90;;;;;;5081322;28;19928;-79
2024/01/22 07:37:42;;;;;;;;;;;8.40;99.90;;;;;;5066728;28;19942;-80
2024/01/22 07:40:11;;;;;;;;;;;8.30;99.90;;;;;;5084314;28;20272;-78
2024/01/22 07:42:41;;;;;;;;;;;8.40;99.90;;;;;;5099751;28;20240;-80
2024/01/22 07:45:15;;;;;;;;;;;8.20;99.90;;;;;;5083693;28;20306;-80
2024/01/22 07:47:44;;;;;;;;;;;8.20;99.90;;;;;;5102010;27;20236;-75
2024/01/22 07:50:10;;;;;;;;;;;8.10;99.90;;;;;;5099286;27;20014;-75
2024/01/22 07:52:37;;;;;;;;;;;8.10;99.90;;;;;;5085656;28;20397;-74
2024/01/22 07:55:03;;;;;;;;;;;7.90;99.90;;;;;;5100446;27;20006;-74
2024/01/22 07:57:29;;;;;;;;;;;8.00;99.90;;;;;;5082841;27;19942;-75
2024/01/22 07:59:55;;;;;;;;;;;7.80;99.90;;;;;;5083366;28;19963;-74
2024/01/22 08:02:20;;;;;;;;;;;7.80;99.90;;;;;;5065119;28;19935;-74
2024/01/22 08:04:46;;;;;;;;;;;7.70;99.90;;;;;;5063784;27;19924;-74
2024/01/22 08:07:12;;;;;;;;;;;7.60;99.90;;;;;;5064061;28;20274;-75
2024/01/22 08:09:38;;;;;;;;;;;7.60;99.90;;;;;;5084465;28;19924;-75
2024/01/22 08:12:04;;;;;;;;;;;7.60;99.90;;;;;;5084710;28;19923;-75
2024/01/22 08:14:35;;;;;;;;;;;7.40;99.90;;;;;;5049742;28;20211;-75
2024/01/22 08:17:01;;;;;;;;;;;7.50;99.90;;;;;;5101658;27;19932;-75
2024/01/22 08:19:28;;;;;;;;;;;7.50;99.90;;;;;;5097902;28;19932;-74
2024/01/22 08:21:54;;;;;;;;;;;7.50;99.90;;;;;;5084125;28;19955;-75
2024/01/22 08:24:21;;;;;;;;;;;7.60;99.90;;;;;;5082933;28;19939;-75
2024/01/22 08:26:48;;;;;;;;;;;7.40;99.90;;;;;;5082989;28;19932;-75
2024/01/22 08:29:14;;;;;;;;;;;7.50;99.90;;;;;;5082814;28;19971;-76
2024/01/22 08:31:40;;;;;;;;;;;7.50;99.90;;;;;;5082955;28;19987;-75
2024/01/22 08:34:06;;;;;;;;;;;7.50;99.90;;;;;;5099058;27;19934;-74
2024/01/22 08:36:31;;;;;;;;;;;7.40;99.90;;;;;;5062912;28;19930;-75
2024/01/22 08:38:57;;;;;;;;;;;7.40;99.90;;;;;;5064718;27;19928;-73
2024/01/22 08:41:26;;;;;;;;;;;7.30;99.90;;;;;;5081109;28;19984;-75
2024/01/22 08:43:56;;;;;;;;;;;7.40;99.90;;;;;;5102389;28;19950;-74
2024/01/22 08:46:22;;;;;;;;;;;7.40;99.90;;;;;;5099690;28;20290;-75
2024/01/22 08:48:48;;;;;;;;;;;7.40;99.90;;;;;;5066655;28;19920;-74
2024/01/22 08:51:14;;;;;;;;;;;7.50;99.90;;;;;;5085181;28;19971;-75
2024/01/22 08:53:40;;;;;;;;;;;7.30;99.90;;;;;;5096646;28;20484;-75
2024/01/22 08:56:06;;;;;;;;;;;7.50;99.90;;;;;;5081979;28;20030;-75
2024/01/22 08:58:31;;;;;;;;;;;7.50;99.90;;;;;;5083772;28;19934;-74
2024/01/22 09:00:57;;;;;;;;;;;7.90;99.90;;;;;;5084279;27;20401;-74
2024/01/22 09:03:24;;;;;;;;;;;8.20;99.90;;;;;;5066558;28;19924;-75
2024/01/22 09:05:51;;;;;;;;;;;8.30;99.90;;;;;;5082374;28;19928;-75
2024/01/22 09:08:16;;;;;;;;;;;8.40;99.90;;;;;;5084140;27;19944;-75
2024/01/22 09:10:42;;;;;;;;;;;8.40;99.90;;;;;;5078430;28;20351;-75
2024/01/22 09:13:09;;;;;;;;;;;8.40;99.90;;;;;;5081910;28;20022;-74
2024/01/22 09:15:35;;;;;;;;;;;8.50;99.90;;;;;;5063244;28;19927;-75
2024/01/22 09:18:01;;;;;;;;;;;8.60;99.90;;;;;;5082295;28;19935;-75
2024/01/22 09:20:27;;;;;;;;;;;8.40;99.90;;;;;;5079382;28;20270;-75
2024/01/22 09:22:53;;;;;;;;;;;8.50;99.90;;;;;;5081831;28;19931;-74
2024/01/22 09:25:20;;;;;;;;;;;8.40;99.90;;;;;;5082864;27;19930;-74
2024/01/22 09:27:47;;;;;;;;;;;8.20;99.90;;;;;;5084098;28;19923;-75
2024/01/22 09:30:16;;;;;;;;;;;8.10;99.90;;;;;;5082803;28;19984;-75
2024/01/22 09:32:42;;;;;;;;;;;8.20;99.90;;;;;;5082978;28;20270;-75
2024/01/22 09:35:08;;;;;;;;;;;8.10;99.90;;;;;;5080135;28;19926;-75
2024/01/22 09:37:36;;;;;;;;;;;8.40;99.90;;;;;;5102138;27;19971;-74
2024/01/22 09:40:03;;;;;;;;;;;8.40;99.90;;;;;;5068597;28;20859;-74
2024/01/22 09:42:29;;;;;;;;;;;8.50;99.90;;;;;;5083076;27;20397;-75
2024/01/22 09:44:58;;;;;;;;;;;8.50;99.90;;;;;;5084418;28;19935;-75
2024/01/22 09:47:24;;;;;;;;;;;8.40;99.90;;;;;;5084287;28;20313;-74
2024/01/22 09:49:52;;;;;;;;;;;8.40;99.90;;;;;;5086338;28;19928;-74
2024/01/22 09:52:27;;;;;;;;;;;8.20;99.90;;;;;;5075452;28;19966;-77
2024/01/22 09:54:53;;;;;;;;;;;8.40;99.90;;;;;;5064384;28;20355;-76
2024/01/22 09:57:21;;;;;;;;;;;7.80;99.90;;;;;;5087208;28;19933;-78
2024/01/22 09:59:48;;;;;;;;;;;8.40;99.90;;;;;;5102232;28;19987;-77
2024/01/22 10:02:15;;;;;;;;;;;8.50;99.90;;;;;;5084023;28;20382;-77
2024/01/22 10:04:43;;;;;;;;;;;8.60;99.90;;;;;;5087144;28;19934;-79
2024/01/22 10:07:11;;;;;;;;;;;8.50;99.90;;;;;;5085465;28;19984;-78
2024/01/22 10:09:36;;;;;;;;;;;8.70;99.90;;;;;;5067513;28;19935;-77
2024/01/22 10:12:02;;;;;;;;;;;9.00;99.90;;;;;;5065815;27;19928;-78
2024/01/22 10:14:30;;;;;;;;;;;9.50;99.90;;;;;;5083225;28;19931;-78
2024/01/22 10:16:56;;;;;;;;;;;9.90;99.90;;;;;;5067476;28;19973;-77
2024/01/22 10:19:28;;;;;;;;;;;10.10;99.30;;;;;;5070178;28;19936;-75
2024/01/22 10:21:59;;;;;;;;;;;10.00;97.90;;;;;;5086484;28;19932;-78
2024/01/22 10:24:25;;;;;;;;;;;9.90;99.50;;;;;;5080296;28;19928;-77
2024/01/22 10:26:50;;;;;;;;;;;9.80;99.60;;;;;;5085755;28;19927;-77
2024/01/22 10:29:18;;;;;;;;;;;9.60;99.60;;;;;;5086043;28;19934;-77
2024/01/22 10:31:57;;;;;;;;;;;9.40;99.90;;;;;;5086011;28;20002;-78
2024/01/22 10:34:24;;;;;;;;;;;9.30;99.90;;;;;;5083430;28;19939;-78
2024/01/22 10:37:09;;;;;;;;;;;9.30;99.90;;;;;;5083205;28;19924;-78
2024/01/22 10:39:35;;;;;;;;;;;9.90;99.90;;;;;;5106535;28;19984;-79
2024/01/22 10:42:06;;;;;;;;;;;9.70;99.80;;;;;;5104169;28;19935;-78
2024/01/22 10:44:32;;;;;;;;;;;9.80;98.90;;;;;;5088258;28;19935;-77
2024/01/22 10:46:58;;;;;;;;;;;9.80;99.30;;;;;;5086418;28;20331;-78
2024/01/22 10:49:24;;;;;;;;;;;10.20;98.30;;;;;;5085726;28;19963;-75
2024/01/22 10:51:50;;;;;;;;;;;10.00;98.30;;;;;;5083040;28;19923;-77
2024/01/22 10:54:16;;;;;;;;;;;9.90;98.30;;;;;;5086384;28;20260;-87
2024/01/22 10:56:42;;;;;;;;;;;10.40;97.10;;;;;;5083776;28;20023;-74
2024/01/22 10:59:12;;;;;;;;;;;10.00;96.30;;;;;;5065038;28;19928;-75
2024/01/22 11:01:38;;;;;;;;;;;10.10;95.00;;;;;;5084154;28;19931;-79
2024/01/22 11:04:39;;;;;;;;;;;10.70;94.90;;;;;;5035765;28;19956;-79
2024/01/22 11:07:36;;;;;;;;;;;10.60;94.00;;;;;;5035135;28;20384;-80
2024/01/22 11:10:17;;;;;;;;;;;10.40;94.40;;;;;;5022851;28;19925;-79
2024/01/22 11:13:10;;;;;;;;;;;9.50;96.10;;;;;;5018496;28;20019;-79
2024/01/22 11:15:36;;;;;;;;;;;9.40;97.10;;;;;;5026376;28;19924;-80
2024/01/22 11:18:19;;;;;;;;;;;9.00;98.10;;;;;;5007933;28;19929;-80
2024/01/22 11:20:45;;;;;;;;;;;8.90;98.90;;;;;;5039335;28;19929;-80
2024/01/22 11:23:15;;;;;;;;;;;8.90;99.40;;;;;;5040406;28;19925;-78
2024/01/22 11:25:40;;;;;;;;;;;8.40;99.40;;;;;;5022764;28;19935;-80
2024/01/22 11:28:10;;;;;;;;;;;8.60;99.50;;;;;;5025561;28;19928;-77
2024/01/22 11:30:38;;;;;;;;;;;8.30;99.80;;;;;;5060855;28;19924;-77
2024/01/22 11:33:31;;;;;;;;;;;8.60;99.90;;;;;;5038934;28;19932;-77
2024/01/22 11:35:57;;;;;;;;;;;8.20;99.90;;;;;;5038574;28;19932;-76
2024/01/22 11:38:41;;;;;;;;;;;8.10;99.90;;;;;;5058827;28;19972;-76
2024/01/22 11:41:07;;;;;;;;;;;8.60;99.90;;;;;;5087491;27;19935;-76
2024/01/22 11:43:32;;;;;;;;;;;8.10;99.90;;;;;;5083589;28;19924;-77
2024/01/22 11:46:04;;;;;;;;;;;8.20;99.90;;;;;;5104086;27;19968;-77
2024/01/22 11:48:30;;;;;;;;;;;8.10;99.90;;;;;;5085859;28;19928;-75
2024/01/22 11:51:00;;;;;;;;;;;7.80;99.90;;;;;;5083066;28;19927;-75
2024/01/22 11:53:26;;;;;;;;;;;8.10;99.90;;;;;;5082083;28;19985;-78
2024/01/22 11:56:05;;;;;;;;;;;7.90;99.90;;;;;;5084452;27;19935;-78
2024/01/22 11:58:31;;;;;;;;;;;8.10;99.90;;;;;;5083084;28;20115;-77
2024/01/22 12:00:57;;;;;;;;;;;8.50;99.90;;;;;;5085838;28;19934;-78
2024/01/22 12:03:26;;;;;;;;;;;7.90;99.90;;;;;;5086488;28;19934;-77
2024/01/22 12:06:04;;;;;;;;;;;7.80;99.90;;;;;;5065969;28;19960;-77
2024/01/22 12:08:44;;;;;;;;;;;7.70;99.90;;;;;;5081776;28;19939;-77
2024/01/22 12:11:51;;;;;;;;;;;7.70;99.90;;;;;;5100145;28;19938;-78
2024/01/22 12:14:39;;;;;;;;;;;7.70;99.90;;;;;;5042815;28;20066;-76
2024/01/22 12:17:09;;;;;;;;;;;8.30;99.90;;;;;;5008198;28;20007;-76
2024/01/22 12:19:59;;;;;;;;;;;8.00;99.90;;;;;;5026026;28;19924;-75
2024/01/22 12:23:09;;;;;;;;;;;6.10;99.90;;;;;;4935098;28;19926;-78
2024/01/22 12:25:41;;;;;;;;;;;7.90;99.90;;;;;;5024304;28;20288;-79
2024/01/22 12:28:12;;;;;;;;;;;8.20;99.90;;;;;;5023586;28;20353;-78
2024/01/22 12:30:38;;;;;;;;;;;7.90;99.90;;;;;;5023239;28;20350;-78
2024/01/22 12:33:04;;;;;;;;;;;8.40;99.90;;;;;;5024217;28;19932;-79
2024/01/22 12:35:29;;;;;;;;;;;7.90;99.90;;;;;;5023099;28;19925;-78
2024/01/22 12:37:57;;;;;;;;;;;7.90;99.90;;;;;;5025612;28;19929;-77
2024/01/22 12:40:28;;;;;;;;;;;8.40;99.90;;;;;;5009994;28;19983;-78
2024/01/22 12:42:57;;;;;;;;;;;7.80;99.90;;;;;;5003005;28;19954;-78
2024/01/22 12:45:24;;;;;;;;;;;8.40;99.90;;;;;;5020924;28;21415;-80
2024/01/22 12:47:51;;;;;;;;;;;7.60;99.90;;;;;;5025425;28;19925;-76
2024/01/22 12:50:19;;;;;;;;;;;8.30;99.90;;;;;;5008150;28;19932;-80
2024/01/22 12:52:45;;;;;;;;;;;8.30;99.90;;;;;;5008697;28;19936;-75
2024/01/22 12:55:11;;;;;;;;;;;7.70;99.90;;;;;;5021694;28;19933;-75
2024/01/22 12:57:37;;;;;;;;;;;7.50;99.90;;;;;;5004962;28;21079;-75
2024/01/22 13:00:05;;;;;;;;;;;7.60;99.90;;;;;;5005511;28;20307;-75
2024/01/22 13:02:31;;;;;;;;;;;7.50;99.90;;;;;;5039882;28;19976;-76
2024/01/22 13:04:57;;;;;;;;;;;7.40;99.90;;;;;;5024580;28;20337;-75
2024/01/22 13:07:22;;;;;;;;;;;7.90;99.90;;;;;;5022255;28;20377;-76
2024/01/22 13:09:48;;;;;;;;;;;7.60;99.90;;;;;;5023723;28;19925;-76
2024/01/22 13:12:14;;;;;;;;;;;7.30;99.90;;;;;;5020564;28;19929;-76
2024/01/22 13:14:39;;;;;;;;;;;7.90;99.90;;;;;;5022542;28;19928;-75
2024/01/22 13:17:08;;;;;;;;;;;7.90;99.90;;;;;;5047370;28;19979;-76
2024/01/22 13:19:33;;;;;;;;;;;8.20;99.90;;;;;;5065743;28;20362;-75
2024/01/22 13:21:59;;;;;;;;;;;7.70;99.90;;;;;;5083123;27;19934;-75
2024/01/22 13:24:26;;;;;;;;;;;7.40;99.90;;;;;;5082286;28;20646;-76
2024/01/22 13:26:52;;;;;;;;;;;8.10;99.90;;;;;;5081191;28;19931;-76
2024/01/22 13:29:18;;;;;;;;;;;7.70;99.90;;;;;;5064488;28;19927;-75
2024/01/22 13:31:44;;;;;;;;;;;8.00;99.90;;;;;;5082743;28;19939;-76
2024/01/22 13:34:09;;;;;;;;;;;7.80;99.90;;;;;;5082435;28;19980;-76
2024/01/22 13:36:36;;;;;;;;;;;7.30;99.90;;;;;;5063792;28;19976;-76
2024/01/22 13:39:02;;;;;;;;;;;7.30;99.90;;;;;;5082362;27;19920;-78
2024/01/22 13:41:34;;;;;;;;;;;7.90;99.90;;;;;;5079359;28;19931;-73
2024/01/22 13:44:10;;;;;;;;;;;7.20;99.90;;;;;;5069094;27;19932;-75
2024/01/22 13:46:36;;;;;;;;;;;7.90;99.90;;;;;;5080107;28;19936;-78
2024/01/22 13:49:03;;;;;;;;;;;7.90;99.90;;;;;;5081882;28;19980;-80
2024/01/22 13:51:35;;;;;;;;;;;7.70;99.90;;;;;;5081393;28;19946;-79
2024/01/22 13:54:00;;;;;;;;;;;7.60;99.90;;;;;;5083615;28;20254;-78
2024/01/22 13:56:28;;;;;;;;;;;7.80;99.90;;;;;;5100258;27;20010;-79
2024/01/22 13:58:54;;;;;;;;;;;7.20;99.90;;;;;;5083614;28;19931;-78
2024/01/22 14:01:19;;;;;;;;;;;7.50;99.90;;;;;;5093845;28;19924;-80
2024/01/22 14:03:45;;;;;;;;;;;7.50;99.90;;;;;;5081186;27;19935;-79
2024/01/22 14:06:11;;;;;;;;;;;7.60;99.90;;;;;;5082483;28;19923;-75
2024/01/22 14:08:38;;;;;;;;;;;7.50;99.90;;;;;;5100571;27;19928;-75
2024/01/22 14:11:04;;;;;;;;;;;7.20;99.90;;;;;;5066348;28;19931;-75
2024/01/22 14:13:30;;;;;;;;;;;7.70;99.90;;;;;;5064420;28;19926;-75
2024/01/22 14:15:55;;;;;;;;;;;7.60;99.90;;;;;;5079982;28;20371;-75
2024/01/22 14:18:23;;;;;;;;;;;7.80;99.90;;;;;;5063314;27;19939;-80
2024/01/22 14:20:49;;;;;;;;;;;7.70;99.90;;;;;;5051615;28;19989;-79
2024/01/22 14:23:25;;;;;;;;;;;7.60;99.90;;;;;;5101112;28;20022;-80
2024/01/22 14:25:51;;;;;;;;;;;7.30;99.90;;;;;;5084226;28;20246;-79
2024/01/22 14:28:16;;;;;;;;;;;7.40;99.90;;;;;;5084099;28;19932;-82
2024/01/22 14:30:42;;;;;;;;;;;7.30;99.90;;;;;;5066244;28;20362;-79
2024/01/22 14:33:07;;;;;;;;;;;7.10;99.90;;;;;;5084865;28;19927;-78